Jrs Merkur — V2FD8 — position and weather

sailwx.info

Track history (hours):
 
Tides and Currents Weather Stations Pressure Air Temp Water Temp Dewpoint Dewpoint Depression Visibility Wind Speed Wind Dir Waves Ship Positions

Jrs Merkur

Last reported at 2015-May-20 21:22 UTC. Time now 2015-May-22 13:03 UTC.
Position N 31°38' E 031°45'.

Length 107 m; draft 5.2 m.

Type: Cargo ship. MMSI: 305644000.

Date/timePositionNaut miles runAvg speedWind from/ knotsBaromVisibWave heightAir tempDewpointWater temp
2015-May-20 21:22N 31°38' E 031°45'0 0.0
2015-May-20 20:31N 31°38' E 031°45'0 0.0
2015-May-20 17:16N 31°38' E 031°45'0 0.0
2015-May-20 16:31N 31°38' E 031°45'0 0.0
2015-May-20 15:31N 31°38' E 031°45'0 0.0
2015-May-20 14:31N 31°38' E 031°45'0 0.0
2015-May-20 13:13N 31°38' E 031°45'0 0.0
2015-May-20 12:31N 31°38' E 031°45'0 0.0
2015-May-20 11:31N 31°38' E 031°45'0 0.0
2015-May-20 10:28N 31°38' E 031°45'0 0.0
2015-May-20 09:31N 31°38' E 031°45'0 0.0
2015-May-20 08:31N 31°38' E 031°45'0 0.0
2015-May-20 07:31N 31°38' E 031°45'0 0.0
2015-May-20 06:31N 31°38' E 031°45'0 0.4
2015-May-20 05:34N 31°38' E 031°46'9 8.9
2015-May-20 04:31N 31°44' E 031°54'1010.3
2015-May-20 03:33N 31°46' E 032°05'2211.1
2015-May-20 01:33N 31°59' E 032°26'1212.2
2015-May-20 00:33N 32°09' E 032°35'12 4.0
2015-May-19 21:32N 32°18' E 032°45'1 0.6
2015-May-19 20:26N 32°18' E 032°44'1 0.8
2015-May-19 19:20N 32°17' E 032°43'3 0.9
2015-May-19 16:23N 32°16' E 032°41'14 0.6
2015-May-18 19:11N 32°22' E 032°27'2 0.9
2015-May-18 17:23N 32°23' E 032°26'3 1.0
2015-May-18 14:26N 32°26' E 032°25'1 0.9
2015-May-18 13:32N 32°27' E 032°25'1 0.9
2015-May-18 12:32N 32°28' E 032°24'10 1.0
2015-May-18 02:19N 32°38' E 032°20'3 0.7
2015-May-17 22:25N 32°40' E 032°20'3 0.9
2015-May-17 19:25N 32°43' E 032°20'1 1.0
2015-May-17 18:31N 32°44' E 032°20'1 1.0
2015-May-17 17:31N 32°45' E 032°20'1 1.0
2015-May-17 16:25N 32°46' E 032°20'1 1.0
2015-May-17 15:25N 32°47' E 032°20'1 1.0
2015-May-17 14:31N 32°48' E 032°20'3 2.6
2015-May-17 13:33N 32°50' E 032°20'10 9.9
2015-May-17 12:30N 33°01' E 032°21'1 1.1
2015-May-17 11:33N 33°01' E 032°22'1 1.0
2015-May-17 10:33N 33°02' E 032°23'1 1.0
2015-May-17 09:33N 33°02' E 032°24'1 1.0
2015-May-17 08:33N 33°03' E 032°26'1 0.9
2015-May-17 07:33N 33°03' E 032°26'1 0.9
2015-May-17 06:33N 33°03' E 032°27'1 0.9
2015-May-17 05:21N 33°04' E 032°29'2 1.0
2015-May-17 03:15N 33°05' E 032°31'1 1.2
2015-May-17 02:33N 33°05' E 032°32'1 1.2
2015-May-17 01:33N 33°06' E 032°33'3 1.1
2015-May-16 22:33N 33°08' E 032°36'1 1.2
2015-May-16 21:33N 33°09' E 032°37'2 2.1
2015-May-16 20:33N 33°11' E 032°38'1212.0
2015-May-16 19:31N 33°22' E 032°43'1512.1
2015-May-16 18:15N 33°37' E 032°50'811.8
2015-May-16 17:33N 33°44' E 032°54'1211.8
2015-May-16 16:32N 33°56' E 032°59'1212.0
2015-May-16 15:33N 34°06' E 033°04'1212.1
2015-May-16 14:33N 34°18' E 033°10'1211.9
2015-May-16 13:33N 34°29' E 033°15'1211.8
2015-May-16 12:33N 34°40' E 033°20'3 1.6
2015-May-16 10:31N 34°43' E 033°22'0 0.0
2015-May-16 09:28N 34°43' E 033°22'0 0.0
2015-May-16 08:31N 34°43' E 033°22'0 0.0
2015-May-16 07:31N 34°43' E 033°22'0 0.0
2015-May-16 06:28N 34°43' E 033°22'0 0.1
2015-May-16 05:04N 34°43' E 033°22'0 0.0
2015-May-16 04:19N 34°43' E 033°22'0 0.0
2015-May-16 03:25N 34°43' E 033°22'0 0.0
2015-May-16 02:10N 34°43' E 033°22'0 0.0
2015-May-16 01:28N 34°43' E 033°22'0 0.0
2015-May-15 22:25N 34°43' E 033°22'0 0.0
2015-May-15 21:28N 34°43' E 033°22'0 0.0
2015-May-15 20:25N 34°43' E 033°22'0 0.0
2015-May-15 19:28N 34°43' E 033°22'0 0.0
2015-May-15 18:31N 34°43' E 033°22'0 0.0
2015-May-15 17:28N 34°43' E 033°22'0 0.0
2015-May-15 16:28N 34°43' E 033°22'0 0.0
2015-May-15 15:31N 34°43' E 033°22'0 0.0
2015-May-15 14:28N 34°43' E 033°22'0 0.0
2015-May-15 13:31N 34°43' E 033°22'0 0.0
2015-May-15 12:31N 34°43' E 033°22'0 0.0
2015-May-15 11:34N 34°43' E 033°22'0 0.0
2015-May-15 10:34N 34°43' E 033°22'0 0.0
2015-May-15 09:34N 34°43' E 033°22'0 0.0
2015-May-15 08:31N 34°43' E 033°22'0 0.0
2015-May-15 07:34N 34°43' E 033°22'0 0.0
2015-May-15 06:31N 34°43' E 033°22'0 0.0
2015-May-15 05:28N 34°43' E 033°22'0 0.0
2015-May-15 04:34N 34°43' E 033°22'0 0.0
2015-May-15 03:34N 34°43' E 033°22'0 0.0
2015-May-15 02:34N 34°43' E 033°22'0 0.0
2015-May-15 01:16N 34°43' E 033°22'0 0.0
2015-May-15 00:25N 34°43' E 033°22'0 0.0
2015-May-14 23:34N 34°43' E 033°22'0 0.0
2015-May-14 22:31N 34°43' E 033°22'0 0.0
2015-May-14 21:22N 34°43' E 033°22'0 0.0
2015-May-14 20:31N 34°43' E 033°22'0 0.0
2015-May-14 19:34N 34°43' E 033°22'0 0.0
2015-May-14 18:31N 34°43' E 033°22'0 0.0
2015-May-14 17:34N 34°43' E 033°22'0 0.0
2015-May-14 16:31N 34°43' E 033°22'0 0.0
2015-May-14 15:31N 34°43' E 033°22'0 0.1
2015-May-14 14:33N 34°43' E 033°22'2 0.0
2015-May-12 15:31N 34°43' E 033°19'0 0.0
2015-May-12 08:19N 34°43' E 033°19'0 0.0
2015-May-12 06:19N 34°43' E 033°19'0 0.0
2015-May-11 19:31N 34°43' E 033°19'0 0.0
2015-May-11 13:10N 34°43' E 033°19'1 1.7
2015-May-11 12:33N 34°43' E 033°20'4 3.9
2015-May-11 11:33N 34°40' E 033°17'10 9.8
2015-May-11 10:33N 34°33' E 033°08'1010.4
2015-May-11 09:33N 34°30' E 032°56'1110.8
2015-May-11 08:33N 34°33' E 032°43'  
Track history (hours):
 
Tides and Currents Weather Stations Pressure Air Temp Water Temp Dewpoint Dewpoint Depression Visibility Wind Speed Wind Dir Waves Ship Positions

Jrs Merkur

Last reported at 2015-May-20 21:22 UTC. Time now 2015-May-22 13:03 UTC.
Position N 31°38' E 031°45'.

Length 107 m; draft 5.2 m.

Type: Cargo ship. MMSI: 305644000.

Date/timePositionNaut miles runAvg speedWind from/ knotsBaromVisibWave heightAir tempDewpointWater temp
2015-May-20 21:22N 31°38' E 031°45'0 0.0
2015-May-20 20:31N 31°38' E 031°45'0 0.0
2015-May-20 17:16N 31°38' E 031°45'0 0.0
2015-May-20 16:31N 31°38' E 031°45'0 0.0
2015-May-20 15:31N 31°38' E 031°45'0 0.0
2015-May-20 14:31N 31°38' E 031°45'0 0.0
2015-May-20 13:13N 31°38' E 031°45'0 0.0
2015-May-20 12:31N 31°38' E 031°45'0 0.0
2015-May-20 11:31N 31°38' E 031°45'0 0.0
2015-May-20 10:28N 31°38' E 031°45'0 0.0
2015-May-20 09:31N 31°38' E 031°45'0 0.0
2015-May-20 08:31N 31°38' E 031°45'0 0.0
2015-May-20 07:31N 31°38' E 031°45'0 0.0
2015-May-20 06:31N 31°38' E 031°45'0 0.4
2015-May-20 05:34N 31°38' E 031°46'9 8.9
2015-May-20 04:31N 31°44' E 031°54'1010.3
2015-May-20 03:33N 31°46' E 032°05'2211.1
2015-May-20 01:33N 31°59' E 032°26'1212.2
2015-May-20 00:33N 32°09' E 032°35'12 4.0
2015-May-19 21:32N 32°18' E 032°45'1 0.6
2015-May-19 20:26N 32°18' E 032°44'1 0.8
2015-May-19 19:20N 32°17' E 032°43'3 0.9
2015-May-19 16:23N 32°16' E 032°41'14 0.6
2015-May-18 19:11N 32°22' E 032°27'2 0.9
2015-May-18 17:23N 32°23' E 032°26'3 1.0
2015-May-18 14:26N 32°26' E 032°25'1 0.9
2015-May-18 13:32N 32°27' E 032°25'1 0.9
2015-May-18 12:32N 32°28' E 032°24'10 1.0
2015-May-18 02:19N 32°38' E 032°20'3 0.7
2015-May-17 22:25N 32°40' E 032°20'3 0.9
2015-May-17 19:25N 32°43' E 032°20'1 1.0
2015-May-17 18:31N 32°44' E 032°20'1 1.0
2015-May-17 17:31N 32°45' E 032°20'1 1.0
2015-May-17 16:25N 32°46' E 032°20'1 1.0
2015-May-17 15:25N 32°47' E 032°20'1 1.0
2015-May-17 14:31N 32°48' E 032°20'3 2.6
2015-May-17 13:33N 32°50' E 032°20'10 9.9
2015-May-17 12:30N 33°01' E 032°21'1 1.1
2015-May-17 11:33N 33°01' E 032°22'1 1.0
2015-May-17 10:33N 33°02' E 032°23'1 1.0
2015-May-17 09:33N 33°02' E 032°24'1 1.0
2015-May-17 08:33N 33°03' E 032°26'1 0.9
2015-May-17 07:33N 33°03' E 032°26'1 0.9
2015-May-17 06:33N 33°03' E 032°27'1 0.9
2015-May-17 05:21N 33°04' E 032°29'2 1.0
2015-May-17 03:15N 33°05' E 032°31'1 1.2
2015-May-17 02:33N 33°05' E 032°32'1 1.2
2015-May-17 01:33N 33°06' E 032°33'3 1.1
2015-May-16 22:33N 33°08' E 032°36'1 1.2
2015-May-16 21:33N 33°09' E 032°37'2 2.1
2015-May-16 20:33N 33°11' E 032°38'1212.0
2015-May-16 19:31N 33°22' E 032°43'1512.1
2015-May-16 18:15N 33°37' E 032°50'811.8
2015-May-16 17:33N 33°44' E 032°54'1211.8
2015-May-16 16:32N 33°56' E 032°59'1212.0
2015-May-16 15:33N 34°06' E 033°04'1212.1
2015-May-16 14:33N 34°18' E 033°10'1211.9
2015-May-16 13:33N 34°29' E 033°15'1211.8
2015-May-16 12:33N 34°40' E 033°20'3 1.6
2015-May-16 10:31N 34°43' E 033°22'0 0.0
2015-May-16 09:28N 34°43' E 033°22'0 0.0
2015-May-16 08:31N 34°43' E 033°22'0 0.0
2015-May-16 07:31N 34°43' E 033°22'0 0.0
2015-May-16 06:28N 34°43' E 033°22'0 0.1
2015-May-16 05:04N 34°43' E 033°22'0 0.0
2015-May-16 04:19N 34°43' E 033°22'0 0.0
2015-May-16 03:25N 34°43' E 033°22'0 0.0
2015-May-16 02:10N 34°43' E 033°22'0 0.0
2015-May-16 01:28N 34°43' E 033°22'0 0.0
2015-May-15 22:25N 34°43' E 033°22'0 0.0
2015-May-15 21:28N 34°43' E 033°22'0 0.0
2015-May-15 20:25N 34°43' E 033°22'0 0.0
2015-May-15 19:28N 34°43' E 033°22'0 0.0
2015-May-15 18:31N 34°43' E 033°22'0 0.0
2015-May-15 17:28N 34°43' E 033°22'0 0.0
2015-May-15 16:28N 34°43' E 033°22'0 0.0
2015-May-15 15:31N 34°43' E 033°22'0 0.0
2015-May-15 14:28N 34°43' E 033°22'0 0.0
2015-May-15 13:31N 34°43' E 033°22'0 0.0
2015-May-15 12:31N 34°43' E 033°22'0 0.0
2015-May-15 11:34N 34°43' E 033°22'0 0.0
2015-May-15 10:34N 34°43' E 033°22'0 0.0
2015-May-15 09:34N 34°43' E 033°22'0 0.0
2015-May-15 08:31N 34°43' E 033°22'0 0.0
2015-May-15 07:34N 34°43' E 033°22'0 0.0
2015-May-15 06:31N 34°43' E 033°22'0 0.0
2015-May-15 05:28N 34°43' E 033°22'0 0.0
2015-May-15 04:34N 34°43' E 033°22'0 0.0
2015-May-15 03:34N 34°43' E 033°22'0 0.0
2015-May-15 02:34N 34°43' E 033°22'0 0.0
2015-May-15 01:16N 34°43' E 033°22'0 0.0
2015-May-15 00:25N 34°43' E 033°22'0 0.0
2015-May-14 23:34N 34°43' E 033°22'0 0.0
2015-May-14 22:31N 34°43' E 033°22'0 0.0
2015-May-14 21:22N 34°43' E 033°22'0 0.0
2015-May-14 20:31N 34°43' E 033°22'0 0.0
2015-May-14 19:34N 34°43' E 033°22'0 0.0
2015-May-14 18:31N 34°43' E 033°22'0 0.0
2015-May-14 17:34N 34°43' E 033°22'0 0.0
2015-May-14 16:31N 34°43' E 033°22'0 0.0
2015-May-14 15:31N 34°43' E 033°22'0 0.1
2015-May-14 14:33N 34°43' E 033°22'2 0.0
2015-May-12 15:31N 34°43' E 033°19'0 0.0
2015-May-12 08:19N 34°43' E 033°19'0 0.0
2015-May-12 06:19N 34°43' E 033°19'0 0.0
2015-May-11 19:31N 34°43' E 033°19'0 0.0
2015-May-11 13:10N 34°43' E 033°19'1 1.7
2015-May-11 12:33N 34°43' E 033°20'4 3.9
2015-May-11 11:33N 34°40' E 033°17'10 9.8
2015-May-11 10:33N 34°33' E 033°08'1010.4
2015-May-11 09:33N 34°30' E 032°56'1110.8
2015-May-11 08:33N 34°33' E 032°43'  

Dump ship's entire track history